sensor_id;sensor_type;location;lat;lon;timestamp;P1;durP1;ratioP1;P2;durP2;ratioP2
6475;SDS011;3271;51.910;5.840;2023-07-20T00:00:55;7.32;;;5.60;;
6475;SDS011;3271;51.910;5.840;2023-07-20T00:03:21;8.55;;;5.47;;
6475;SDS011;3271;51.910;5.840;2023-07-20T00:05:50;6.00;;;5.40;;
6475;SDS011;3271;51.910;5.840;2023-07-20T00:08:19;6.07;;;5.43;;
6475;SDS011;3271;51.910;5.840;2023-07-20T00:10:45;6.35;;;5.47;;
6475;SDS011;3271;51.910;5.840;2023-07-20T00:13:11;7.97;;;5.85;;
6475;SDS011;3271;51.910;5.840;2023-07-20T00:15:37;9.02;;;5.95;;
6475;SDS011;3271;51.910;5.840;2023-07-20T00:18:04;6.72;;;5.82;;
6475;SDS011;3271;51.910;5.840;2023-07-20T00:20:30;8.00;;;6.45;;
6475;SDS011;3271;51.910;5.840;2023-07-20T00:22:56;7.28;;;5.30;;
6475;SDS011;3271;51.910;5.840;2023-07-20T00:25:22;6.90;;;5.43;;
6475;SDS011;3271;51.910;5.840;2023-07-20T00:27:48;6.07;;;5.47;;
6475;SDS011;3271;51.910;5.840;2023-07-20T00:30:14;6.57;;;5.63;;
6475;SDS011;3271;51.910;5.840;2023-07-20T00:32:41;7.18;;;5.35;;
6475;SDS011;3271;51.910;5.840;2023-07-20T00:35:08;8.05;;;5.55;;
6475;SDS011;3271;51.910;5.840;2023-07-20T00:37:34;6.75;;;5.47;;
6475;SDS011;3271;51.910;5.840;2023-07-20T00:40:00;5.25;;;4.75;;
6475;SDS011;3271;51.910;5.840;2023-07-20T00:42:26;6.25;;;5.18;;
6475;SDS011;3271;51.910;5.840;2023-07-20T00:44:52;5.55;;;5.05;;
6475;SDS011;3271;51.910;5.840;2023-07-20T00:47:18;6.38;;;4.60;;
6475;SDS011;3271;51.910;5.840;2023-07-20T00:49:44;5.68;;;4.53;;
6475;SDS011;3271;51.910;5.840;2023-07-20T00:52:10;4.93;;;4.50;;
6475;SDS011;3271;51.910;5.840;2023-07-20T00:54:36;5.65;;;5.07;;
6475;SDS011;3271;51.910;5.840;2023-07-20T00:57:03;5.85;;;4.70;;
6475;SDS011;3271;51.910;5.840;2023-07-20T00:59:30;5.75;;;4.65;;
6475;SDS011;3271;51.910;5.840;2023-07-20T01:01:56;5.03;;;4.55;;
6475;SDS011;3271;51.910;5.840;2023-07-20T01:04:21;4.88;;;4.38;;
6475;SDS011;3271;51.910;5.840;2023-07-20T01:07:06;5.90;;;4.43;;
6475;SDS011;3271;51.910;5.840;2023-07-20T01:09:39;5.18;;;4.68;;
6475;SDS011;3271;51.910;5.840;2023-07-20T01:12:17;5.03;;;4.63;;
6475;SDS011;3271;51.910;5.840;2023-07-20T01:14:44;6.90;;;5.10;;
6475;SDS011;3271;51.910;5.840;2023-07-20T01:17:10;6.13;;;4.47;;
6475;SDS011;3271;51.910;5.840;2023-07-20T01:19:37;4.75;;;4.32;;
6475;SDS011;3271;51.910;5.840;2023-07-20T01:22:09;4.95;;;4.35;;
6475;SDS011;3271;51.910;5.840;2023-07-20T01:24:44;6.35;;;4.90;;
6475;SDS011;3271;51.910;5.840;2023-07-20T01:27:22;4.88;;;3.92;;
6475;SDS011;3271;51.910;5.840;2023-07-20T01:32:30;4.60;;;4.20;;
6475;SDS011;3271;51.910;5.840;2023-07-20T01:34:56;4.65;;;4.22;;
6475;SDS011;3271;51.910;5.840;2023-07-20T01:37:25;6.10;;;4.20;;
6475;SDS011;3271;51.910;5.840;2023-07-20T01:39:54;5.25;;;4.78;;
6475;SDS011;3271;51.910;5.840;2023-07-20T01:42:21;4.05;;;3.75;;
6475;SDS011;3271;51.910;5.840;2023-07-20T01:44:50;4.10;;;3.80;;
6475;SDS011;3271;51.910;5.840;2023-07-20T01:47:17;3.50;;;3.20;;
6475;SDS011;3271;51.910;5.840;2023-07-20T01:49:43;4.25;;;3.85;;
6475;SDS011;3271;51.910;5.840;2023-07-20T01:52:09;4.50;;;4.10;;
6475;SDS011;3271;51.910;5.840;2023-07-20T01:54:35;4.88;;;4.00;;
6475;SDS011;3271;51.910;5.840;2023-07-20T01:57:01;4.78;;;3.88;;
6475;SDS011;3271;51.910;5.840;2023-07-20T01:59:27;4.13;;;3.78;;
6475;SDS011;3271;51.910;5.840;2023-07-20T02:01:53;4.60;;;3.80;;
6475;SDS011;3271;51.910;5.840;2023-07-20T02:04:19;3.95;;;3.55;;
6475;SDS011;3271;51.910;5.840;2023-07-20T02:06:44;4.18;;;3.50;;
6475;SDS011;3271;51.910;5.840;2023-07-20T02:09:10;3.58;;;3.28;;
6475;SDS011;3271;51.910;5.840;2023-07-20T02:11:36;4.97;;;3.63;;
6475;SDS011;3271;51.910;5.840;2023-07-20T02:14:02;3.75;;;2.90;;
6475;SDS011;3271;51.910;5.840;2023-07-20T02:16:28;3.97;;;3.28;;
6475;SDS011;3271;51.910;5.840;2023-07-20T02:18:54;3.28;;;2.70;;
6475;SDS011;3271;51.910;5.840;2023-07-20T02:21:21;8.52;;;3.25;;
6475;SDS011;3271;51.910;5.840;2023-07-20T02:23:48;4.68;;;3.05;;
6475;SDS011;3271;51.910;5.840;2023-07-20T02:26:14;3.17;;;2.90;;
6475;SDS011;3271;51.910;5.840;2023-07-20T02:28:40;3.28;;;2.97;;
6475;SDS011;3271;51.910;5.840;2023-07-20T02:31:06;4.15;;;2.50;;
6475;SDS011;3271;51.910;5.840;2023-07-20T02:33:32;3.72;;;3.38;;
6475;SDS011;3271;51.910;5.840;2023-07-20T02:35:58;3.20;;;2.90;;
6475;SDS011;3271;51.910;5.840;2023-07-20T02:38:24;2.58;;;2.38;;
6475;SDS011;3271;51.910;5.840;2023-07-20T02:40:50;3.10;;;2.90;;
6475;SDS011;3271;51.910;5.840;2023-07-20T02:43:16;3.80;;;3.10;;
6475;SDS011;3271;51.910;5.840;2023-07-20T02:45:43;3.03;;;2.80;;
6475;SDS011;3271;51.910;5.840;2023-07-20T02:48:09;4.18;;;2.63;;
6475;SDS011;3271;51.910;5.840;2023-07-20T02:50:35;4.15;;;3.47;;
6475;SDS011;3271;51.910;5.840;2023-07-20T02:53:01;3.40;;;3.10;;
6475;SDS011;3271;51.910;5.840;2023-07-20T02:55:27;3.00;;;2.80;;
6475;SDS011;3271;51.910;5.840;2023-07-20T02:57:53;3.63;;;2.63;;
6475;SDS011;3271;51.910;5.840;2023-07-20T03:00:19;3.38;;;3.08;;
6475;SDS011;3271;51.910;5.840;2023-07-20T03:02:46;3.10;;;2.90;;
6475;SDS011;3271;51.910;5.840;2023-07-20T03:05:12;2.78;;;2.58;;
6475;SDS011;3271;51.910;5.840;2023-07-20T03:07:38;3.10;;;2.85;;
6475;SDS011;3271;51.910;5.840;2023-07-20T03:10:04;3.03;;;2.58;;
6475;SDS011;3271;51.910;5.840;2023-07-20T03:12:34;3.35;;;2.83;;
6475;SDS011;3271;51.910;5.840;2023-07-20T03:15:00;3.10;;;2.80;;
6475;SDS011;3271;51.910;5.840;2023-07-20T03:17:26;3.33;;;3.03;;
6475;SDS011;3271;51.910;5.840;2023-07-20T03:19:51;3.03;;;2.72;;
6475;SDS011;3271;51.910;5.840;2023-07-20T03:22:17;3.00;;;2.80;;
6475;SDS011;3271;51.910;5.840;2023-07-20T03:24:43;3.15;;;2.80;;
6475;SDS011;3271;51.910;5.840;2023-07-20T03:27:09;3.10;;;2.80;;
6475;SDS011;3271;51.910;5.840;2023-07-20T03:29:35;3.15;;;2.92;;
6475;SDS011;3271;51.910;5.840;2023-07-20T03:32:01;3.20;;;2.90;;
6475;SDS011;3271;51.910;5.840;2023-07-20T03:34:27;2.97;;;2.78;;
6475;SDS011;3271;51.910;5.840;2023-07-20T03:36:53;3.13;;;2.58;;
6475;SDS011;3271;51.910;5.840;2023-07-20T03:39:19;2.97;;;2.78;;
6475;SDS011;3271;51.910;5.840;2023-07-20T03:41:45;2.80;;;2.60;;
6475;SDS011;3271;51.910;5.840;2023-07-20T03:44:11;4.15;;;2.67;;
6475;SDS011;3271;51.910;5.840;2023-07-20T03:46:37;2.75;;;2.55;;
6475;SDS011;3271;51.910;5.840;2023-07-20T03:49:03;3.58;;;2.78;;
6475;SDS011;3271;51.910;5.840;2023-07-20T03:51:31;2.80;;;2.60;;
6475;SDS011;3271;51.910;5.840;2023-07-20T03:53:56;3.03;;;2.83;;
6475;SDS011;3271;51.910;5.840;2023-07-20T03:56:22;2.70;;;2.50;;
6475;SDS011;3271;51.910;5.840;2023-07-20T03:58:49;4.15;;;2.72;;
6475;SDS011;3271;51.910;5.840;2023-07-20T04:01:15;3.00;;;2.63;;
6475;SDS011;3271;51.910;5.840;2023-07-20T04:03:44;2.80;;;2.50;;
6475;SDS011;3271;51.910;5.840;2023-07-20T04:06:10;2.47;;;2.33;;
6475;SDS011;3271;51.910;5.840;2023-07-20T04:08:36;2.45;;;2.25;;
6475;SDS011;3271;51.910;5.840;2023-07-20T04:11:03;2.50;;;2.33;;
6475;SDS011;3271;51.910;5.840;2023-07-20T04:13:29;2.78;;;2.50;;
6475;SDS011;3271;51.910;5.840;2023-07-20T04:15:59;2.45;;;2.25;;
6475;SDS011;3271;51.910;5.840;2023-07-20T04:18:25;2.95;;;2.75;;
6475;SDS011;3271;51.910;5.840;2023-07-20T04:20:51;2.85;;;2.65;;
6475;SDS011;3271;51.910;5.840;2023-07-20T04:23:17;2.78;;;2.55;;
6475;SDS011;3271;51.910;5.840;2023-07-20T04:25:43;3.45;;;2.40;;
6475;SDS011;3271;51.910;5.840;2023-07-20T04:28:09;3.25;;;2.50;;
6475;SDS011;3271;51.910;5.840;2023-07-20T04:30:35;3.10;;;2.72;;
6475;SDS011;3271;51.910;5.840;2023-07-20T04:33:02;3.00;;;2.70;;
6475;SDS011;3271;51.910;5.840;2023-07-20T04:38:13;2.95;;;2.75;;
6475;SDS011;3271;51.910;5.840;2023-07-20T04:40:41;3.28;;;2.95;;
6475;SDS011;3271;51.910;5.840;2023-07-20T04:43:08;4.15;;;3.03;;
6475;SDS011;3271;51.910;5.840;2023-07-20T04:45:34;2.95;;;2.75;;
6475;SDS011;3271;51.910;5.840;2023-07-20T04:48:00;3.63;;;3.33;;
6475;SDS011;3271;51.910;5.840;2023-07-20T04:50:26;4.38;;;2.97;;
6475;SDS011;3271;51.910;5.840;2023-07-20T04:52:52;3.28;;;3.03;;
6475;SDS011;3271;51.910;5.840;2023-07-20T04:55:18;6.30;;;3.63;;
6475;SDS011;3271;51.910;5.840;2023-07-20T04:57:44;4.30;;;3.15;;
6475;SDS011;3271;51.910;5.840;2023-07-20T05:00:10;3.30;;;3.00;;
6475;SDS011;3271;51.910;5.840;2023-07-20T05:02:38;2.90;;;2.70;;
6475;SDS011;3271;51.910;5.840;2023-07-20T05:05:04;3.83;;;3.53;;
6475;SDS011;3271;51.910;5.840;2023-07-20T05:07:31;3.28;;;2.95;;
6475;SDS011;3271;51.910;5.840;2023-07-20T05:09:57;4.22;;;3.67;;
6475;SDS011;3271;51.910;5.840;2023-07-20T05:12:23;4.85;;;4.07;;
6475;SDS011;3271;51.910;5.840;2023-07-20T05:14:49;3.85;;;3.50;;
6475;SDS011;3271;51.910;5.840;2023-07-20T05:17:15;4.00;;;3.60;;
6475;SDS011;3271;51.910;5.840;2023-07-20T05:19:41;3.58;;;3.38;;
6475;SDS011;3271;51.910;5.840;2023-07-20T05:22:07;3.90;;;3.60;;
6475;SDS011;3271;51.910;5.840;2023-07-20T05:24:33;4.05;;;3.75;;
6475;SDS011;3271;51.910;5.840;2023-07-20T05:26:59;4.03;;;3.72;;
6475;SDS011;3271;51.910;5.840;2023-07-20T05:29:25;4.38;;;3.33;;
6475;SDS011;3271;51.910;5.840;2023-07-20T05:31:51;3.58;;;3.38;;
6475;SDS011;3271;51.910;5.840;2023-07-20T05:34:17;4.18;;;3.78;;
6475;SDS011;3271;51.910;5.840;2023-07-20T05:36:43;4.03;;;3.63;;
6475;SDS011;3271;51.910;5.840;2023-07-20T05:39:09;3.60;;;3.28;;
6475;SDS011;3271;51.910;5.840;2023-07-20T05:41:35;3.72;;;3.42;;
6475;SDS011;3271;51.910;5.840;2023-07-20T05:44:01;4.28;;;3.88;;
6475;SDS011;3271;51.910;5.840;2023-07-20T05:46:26;4.45;;;2.92;;
6475;SDS011;3271;51.910;5.840;2023-07-20T05:48:52;3.20;;;2.95;;
6475;SDS011;3271;51.910;5.840;2023-07-20T05:51:18;4.63;;;2.88;;
6475;SDS011;3271;51.910;5.840;2023-07-20T05:53:44;3.55;;;3.25;;
6475;SDS011;3271;51.910;5.840;2023-07-20T05:56:10;3.20;;;2.92;;
6475;SDS011;3271;51.910;5.840;2023-07-20T05:58:36;3.08;;;2.50;;
6475;SDS011;3271;51.910;5.840;2023-07-20T06:01:03;3.17;;;2.90;;
6475;SDS011;3271;51.910;5.840;2023-07-20T06:03:31;3.03;;;2.47;;
6475;SDS011;3271;51.910;5.840;2023-07-20T06:06:01;3.13;;;2.20;;
6475;SDS011;3271;51.910;5.840;2023-07-20T06:08:28;2.78;;;2.58;;
6475;SDS011;3271;51.910;5.840;2023-07-20T06:10:54;1.98;;;1.85;;
6475;SDS011;3271;51.910;5.840;2023-07-20T06:13:20;2.83;;;2.15;;
6475;SDS011;3271;51.910;5.840;2023-07-20T06:15:46;3.13;;;2.00;;
6475;SDS011;3271;51.910;5.840;2023-07-20T06:18:12;2.50;;;2.17;;
6475;SDS011;3271;51.910;5.840;2023-07-20T06:20:38;2.17;;;1.98;;
6475;SDS011;3271;51.910;5.840;2023-07-20T06:23:04;2.40;;;2.20;;
6475;SDS011;3271;51.910;5.840;2023-07-20T06:25:30;1.75;;;1.40;;
6475;SDS011;3271;51.910;5.840;2023-07-20T06:27:56;2.65;;;1.75;;
6475;SDS011;3271;51.910;5.840;2023-07-20T06:30:22;1.67;;;1.58;;
6475;SDS011;3271;51.910;5.840;2023-07-20T06:32:48;1.70;;;1.60;;
6475;SDS011;3271;51.910;5.840;2023-07-20T06:35:15;1.77;;;1.40;;
6475;SDS011;3271;51.910;5.840;2023-07-20T06:37:41;1.67;;;1.33;;
6475;SDS011;3271;51.910;5.840;2023-07-20T06:40:07;1.45;;;1.35;;
6475;SDS011;3271;51.910;5.840;2023-07-20T06:42:34;2.38;;;1.33;;
6475;SDS011;3271;51.910;5.840;2023-07-20T06:45:00;1.30;;;1.20;;
6475;SDS011;3271;51.910;5.840;2023-07-20T06:47:26;1.58;;;1.40;;
6475;SDS011;3271;51.910;5.840;2023-07-20T06:49:52;1.45;;;1.30;;
6475;SDS011;3271;51.910;5.840;2023-07-20T06:52:18;1.77;;;1.58;;
6475;SDS011;3271;51.910;5.840;2023-07-20T06:54:44;2.33;;;1.60;;
6475;SDS011;3271;51.910;5.840;2023-07-20T06:57:10;2.00;;;1.50;;
6475;SDS011;3271;51.910;5.840;2023-07-20T06:59:35;1.20;;;1.10;;
6475;SDS011;3271;51.910;5.840;2023-07-20T07:02:01;1.60;;;1.30;;
6475;SDS011;3271;51.910;5.840;2023-07-20T07:04:27;1.27;;;0.85;;
6475;SDS011;3271;51.910;5.840;2023-07-20T07:06:54;0.70;;;0.70;;
6475;SDS011;3271;51.910;5.840;2023-07-20T07:09:19;0.80;;;0.80;;
6475;SDS011;3271;51.910;5.840;2023-07-20T07:11:45;2.90;;;0.90;;
6475;SDS011;3271;51.910;5.840;2023-07-20T07:14:12;1.35;;;1.08;;
6475;SDS011;3271;51.910;5.840;2023-07-20T07:16:38;1.48;;;1.17;;
6475;SDS011;3271;51.910;5.840;2023-07-20T07:19:04;1.85;;;1.27;;
6475;SDS011;3271;51.910;5.840;2023-07-20T07:21:30;1.23;;;1.00;;
6475;SDS011;3271;51.910;5.840;2023-07-20T07:23:56;1.10;;;1.00;;
6475;SDS011;3271;51.910;5.840;2023-07-20T07:26:24;4.15;;;1.02;;
6475;SDS011;3271;51.910;5.840;2023-07-20T07:28:50;2.20;;;0.98;;
6475;SDS011;3271;51.910;5.840;2023-07-20T07:31:16;1.17;;;1.00;;
6475;SDS011;3271;51.910;5.840;2023-07-20T07:33:42;1.45;;;1.25;;
6475;SDS011;3271;51.910;5.840;2023-07-20T07:36:08;1.20;;;1.10;;
6475;SDS011;3271;51.910;5.840;2023-07-20T07:38:34;1.95;;;1.13;;
6475;SDS011;3271;51.910;5.840;2023-07-20T07:41:00;1.75;;;1.35;;
6475;SDS011;3271;51.910;5.840;2023-07-20T07:43:25;0.95;;;0.82;;
6475;SDS011;3271;51.910;5.840;2023-07-20T07:45:53;1.40;;;1.00;;
6475;SDS011;3271;51.910;5.840;2023-07-20T07:48:19;1.13;;;1.00;;
6475;SDS011;3271;51.910;5.840;2023-07-20T07:50:46;0.88;;;0.88;;
6475;SDS011;3271;51.910;5.840;2023-07-20T07:53:12;1.73;;;1.10;;
6475;SDS011;3271;51.910;5.840;2023-07-20T07:55:38;1.98;;;0.90;;
6475;SDS011;3271;51.910;5.840;2023-07-20T07:58:04;1.08;;;0.90;;
6475;SDS011;3271;51.910;5.840;2023-07-20T08:00:30;0.98;;;0.90;;
6475;SDS011;3271;51.910;5.840;2023-07-20T08:02:56;0.90;;;0.90;;
6475;SDS011;3271;51.910;5.840;2023-07-20T08:05:22;1.40;;;1.30;;
6475;SDS011;3271;51.910;5.840;2023-07-20T08:07:48;2.75;;;1.10;;
6475;SDS011;3271;51.910;5.840;2023-07-20T08:10:14;1.65;;;1.30;;
6475;SDS011;3271;51.910;5.840;2023-07-20T08:12:40;2.15;;;1.30;;
6475;SDS011;3271;51.910;5.840;2023-07-20T08:15:06;1.00;;;1.00;;
6475;SDS011;3271;51.910;5.840;2023-07-20T08:17:32;1.83;;;1.00;;
6475;SDS011;3271;51.910;5.840;2023-07-20T08:19:58;1.30;;;1.02;;
6475;SDS011;3271;51.910;5.840;2023-07-20T08:22:24;2.65;;;1.10;;
6475;SDS011;3271;51.910;5.840;2023-07-20T08:24:50;1.63;;;0.90;;
6475;SDS011;3271;51.910;5.840;2023-07-20T08:27:15;1.30;;;1.17;;
6475;SDS011;3271;51.910;5.840;2023-07-20T08:29:41;2.63;;;1.30;;
6475;SDS011;3271;51.910;5.840;2023-07-20T08:32:07;1.20;;;1.17;;
6475;SDS011;3271;51.910;5.840;2023-07-20T08:34:34;1.70;;;1.20;;
6475;SDS011;3271;51.910;5.840;2023-07-20T08:36:59;1.17;;;1.08;;
6475;SDS011;3271;51.910;5.840;2023-07-20T08:39:25;5.78;;;5.22;;
6475;SDS011;3271;51.910;5.840;2023-07-20T08:41:51;2.28;;;2.08;;
6475;SDS011;3271;51.910;5.840;2023-07-20T08:44:17;3.92;;;2.28;;
6475;SDS011;3271;51.910;5.840;2023-07-20T08:46:43;1.70;;;1.60;;
6475;SDS011;3271;51.910;5.840;2023-07-20T08:49:10;2.58;;;1.67;;
6475;SDS011;3271;51.910;5.840;2023-07-20T08:51:36;2.90;;;2.20;;
6475;SDS011;3271;51.910;5.840;2023-07-20T08:54:02;1.98;;;1.77;;
6475;SDS011;3271;51.910;5.840;2023-07-20T08:56:28;1.88;;;1.77;;
6475;SDS011;3271;51.910;5.840;2023-07-20T08:58:56;1.90;;;1.80;;
6475;SDS011;3271;51.910;5.840;2023-07-20T09:01:22;2.25;;;1.83;;
6475;SDS011;3271;51.910;5.840;2023-07-20T09:03:49;2.22;;;1.65;;
6475;SDS011;3271;51.910;5.840;2023-07-20T09:06:15;1.52;;;1.42;;
6475;SDS011;3271;51.910;5.840;2023-07-20T09:08:41;2.25;;;1.40;;
6475;SDS011;3271;51.910;5.840;2023-07-20T09:11:08;1.30;;;1.20;;
6475;SDS011;3271;51.910;5.840;2023-07-20T09:13:34;1.38;;;1.27;;
6475;SDS011;3271;51.910;5.840;2023-07-20T09:16:00;1.05;;;1.05;;
6475;SDS011;3271;51.910;5.840;2023-07-20T09:18:29;1.52;;;1.42;;
6475;SDS011;3271;51.910;5.840;2023-07-20T09:20:59;1.60;;;1.50;;
6475;SDS011;3271;51.910;5.840;2023-07-20T09:23:44;1.35;;;1.25;;
6475;SDS011;3271;51.910;5.840;2023-07-20T09:26:11;1.35;;;1.25;;
6475;SDS011;3271;51.910;5.840;2023-07-20T09:28:41;1.70;;;1.60;;
6475;SDS011;3271;51.910;5.840;2023-07-20T09:31:14;1.55;;;1.40;;
6475;SDS011;3271;51.910;5.840;2023-07-20T09:33:41;1.60;;;1.50;;
6475;SDS011;3271;51.910;5.840;2023-07-20T09:36:09;2.05;;;1.85;;
6475;SDS011;3271;51.910;5.840;2023-07-20T09:38:36;2.03;;;1.58;;
6475;SDS011;3271;51.910;5.840;2023-07-20T09:41:02;1.95;;;1.80;;
6475;SDS011;3271;51.910;5.840;2023-07-20T09:43:28;2.35;;;1.90;;
6475;SDS011;3271;51.910;5.840;2023-07-20T09:45:58;1.33;;;1.23;;
6475;SDS011;3271;51.910;5.840;2023-07-20T09:48:24;2.28;;;2.08;;
6475;SDS011;3271;51.910;5.840;2023-07-20T09:50:51;2.10;;;1.90;;
6475;SDS011;3271;51.910;5.840;2023-07-20T09:53:18;2.13;;;1.92;;
6475;SDS011;3271;51.910;5.840;2023-07-20T09:55:44;2.60;;;1.63;;
6475;SDS011;3271;51.910;5.840;2023-07-20T09:58:11;2.83;;;1.77;;
6475;SDS011;3271;51.910;5.840;2023-07-20T10:00:38;2.25;;;1.80;;
6475;SDS011;3271;51.910;5.840;2023-07-20T10:03:04;2.03;;;1.80;;
6475;SDS011;3271;51.910;5.840;2023-07-20T10:05:35;1.20;;;1.10;;
6475;SDS011;3271;51.910;5.840;2023-07-20T10:08:02;2.42;;;1.70;;
6475;SDS011;3271;51.910;5.840;2023-07-20T10:10:30;1.58;;;1.40;;
6475;SDS011;3271;51.910;5.840;2023-07-20T10:12:57;1.35;;;1.30;;
6475;SDS011;3271;51.910;5.840;2023-07-20T10:15:33;1.50;;;1.23;;
6475;SDS011;3271;51.910;5.840;2023-07-20T10:18:24;1.13;;;1.00;;
6475;SDS011;3271;51.910;5.840;2023-07-20T10:20:48;1.50;;;0.98;;
6475;SDS011;3271;51.910;5.840;2023-07-20T10:23:15;1.65;;;1.05;;
6475;SDS011;3271;51.910;5.840;2023-07-20T10:25:41;2.25;;;1.20;;
6475;SDS011;3271;51.910;5.840;2023-07-20T10:28:08;1.60;;;1.27;;
6475;SDS011;3271;51.910;5.840;2023-07-20T10:30:34;2.45;;;1.40;;
6475;SDS011;3271;51.910;5.840;2023-07-20T10:33:02;3.33;;;1.35;;
6475;SDS011;3271;51.910;5.840;2023-07-20T10:35:28;1.40;;;1.27;;
6475;SDS011;3271;51.910;5.840;2023-07-20T10:37:55;1.30;;;1.20;;
6475;SDS011;3271;51.910;5.840;2023-07-20T10:42:55;1.05;;;1.05;;
6475;SDS011;3271;51.910;5.840;2023-07-20T10:45:26;1.00;;;1.00;;
6475;SDS011;3271;51.910;5.840;2023-07-20T10:47:58;1.33;;;1.23;;
6475;SDS011;3271;51.910;5.840;2023-07-20T10:50:24;1.92;;;1.10;;
6475;SDS011;3271;51.910;5.840;2023-07-20T10:53:10;1.73;;;1.63;;
6475;SDS011;3271;51.910;5.840;2023-07-20T10:55:36;1.13;;;1.10;;
6475;SDS011;3271;51.910;5.840;2023-07-20T10:58:06;1.00;;;1.00;;
6475;SDS011;3271;51.910;5.840;2023-07-20T11:00:32;1.17;;;1.02;;
6475;SDS011;3271;51.910;5.840;2023-07-20T11:02:58;1.10;;;1.00;;
6475;SDS011;3271;51.910;5.840;2023-07-20T11:05:34;1.60;;;1.02;;
6475;SDS011;3271;51.910;5.840;2023-07-20T11:08:03;1.13;;;1.10;;
6475;SDS011;3271;51.910;5.840;2023-07-20T11:10:29;1.40;;;1.10;;
6475;SDS011;3271;51.910;5.840;2023-07-20T11:13:15;1.15;;;1.05;;
6475;SDS011;3271;51.910;5.840;2023-07-20T11:15:45;1.25;;;1.15;;
6475;SDS011;3271;51.910;5.840;2023-07-20T11:18:12;1.08;;;1.05;;
6475;SDS011;3271;51.910;5.840;2023-07-20T11:20:38;1.50;;;1.20;;
6475;SDS011;3271;51.910;5.840;2023-07-20T11:23:04;1.30;;;1.20;;
6475;SDS011;3271;51.910;5.840;2023-07-20T11:25:39;1.15;;;1.05;;
6475;SDS011;3271;51.910;5.840;2023-07-20T11:28:06;0.90;;;0.90;;
6475;SDS011;3271;51.910;5.840;2023-07-20T11:30:33;1.75;;;1.50;;
6475;SDS011;3271;51.910;5.840;2023-07-20T11:32:59;1.73;;;1.40;;
6475;SDS011;3271;51.910;5.840;2023-07-20T11:35:25;1.83;;;1.30;;
6475;SDS011;3271;51.910;5.840;2023-07-20T11:37:51;1.45;;;1.35;;
6475;SDS011;3271;51.910;5.840;2023-07-20T11:40:17;1.35;;;1.25;;
6475;SDS011;3271;51.910;5.840;2023-07-20T11:42:43;1.42;;;1.33;;
6475;SDS011;3271;51.910;5.840;2023-07-20T11:45:10;1.50;;;1.40;;
6475;SDS011;3271;51.910;5.840;2023-07-20T11:47:39;1.48;;;1.38;;
6475;SDS011;3271;51.910;5.840;2023-07-20T11:50:07;1.52;;;1.38;;
6475;SDS011;3271;51.910;5.840;2023-07-20T11:52:33;1.70;;;1.40;;
6475;SDS011;3271;51.910;5.840;2023-07-20T11:54:59;1.27;;;1.20;;
6475;SDS011;3271;51.910;5.840;2023-07-20T11:57:25;1.45;;;1.35;;
6475;SDS011;3271;51.910;5.840;2023-07-20T12:02:22;1.15;;;1.10;;
6475;SDS011;3271;51.910;5.840;2023-07-20T12:04:49;1.33;;;1.23;;
6475;SDS011;3271;51.910;5.840;2023-07-20T12:07:15;1.30;;;1.20;;
6475;SDS011;3271;51.910;5.840;2023-07-20T12:09:41;1.95;;;1.20;;
6475;SDS011;3271;51.910;5.840;2023-07-20T12:12:10;1.10;;;1.10;;
6475;SDS011;3271;51.910;5.840;2023-07-20T12:14:37;1.23;;;1.13;;
6475;SDS011;3271;51.910;5.840;2023-07-20T12:17:03;1.30;;;1.20;;
6475;SDS011;3271;51.910;5.840;2023-07-20T12:19:29;1.50;;;1.40;;
6475;SDS011;3271;51.910;5.840;2023-07-20T12:21:57;2.25;;;1.30;;
6475;SDS011;3271;51.910;5.840;2023-07-20T12:24:26;1.30;;;0.95;;
6475;SDS011;3271;51.910;5.840;2023-07-20T12:26:55;1.13;;;1.02;;
6475;SDS011;3271;51.910;5.840;2023-07-20T12:29:24;1.95;;;1.25;;
6475;SDS011;3271;51.910;5.840;2023-07-20T12:31:51;1.95;;;1.75;;
6475;SDS011;3271;51.910;5.840;2023-07-20T12:34:17;3.30;;;1.70;;
6475;SDS011;3271;51.910;5.840;2023-07-20T12:36:43;2.13;;;1.80;;
6475;SDS011;3271;51.910;5.840;2023-07-20T12:39:09;2.20;;;1.38;;
6475;SDS011;3271;51.910;5.840;2023-07-20T12:41:35;1.52;;;1.35;;
6475;SDS011;3271;51.910;5.840;2023-07-20T12:44:00;1.48;;;1.38;;
6475;SDS011;3271;51.910;5.840;2023-07-20T12:46:26;1.52;;;1.42;;
6475;SDS011;3271;51.910;5.840;2023-07-20T12:48:55;1.17;;;1.08;;
6475;SDS011;3271;51.910;5.840;2023-07-20T12:51:21;1.48;;;1.38;;
6475;SDS011;3271;51.910;5.840;2023-07-20T12:53:47;1.48;;;1.38;;
6475;SDS011;3271;51.910;5.840;2023-07-20T12:56:13;1.20;;;1.10;;
6475;SDS011;3271;51.910;5.840;2023-07-20T12:58:40;2.55;;;1.58;;
6475;SDS011;3271;51.910;5.840;2023-07-20T13:01:06;1.20;;;1.10;;
6475;SDS011;3271;51.910;5.840;2023-07-20T13:03:32;1.67;;;0.98;;
6475;SDS011;3271;51.910;5.840;2023-07-20T13:05:59;0.98;;;0.98;;
6475;SDS011;3271;51.910;5.840;2023-07-20T13:08:25;1.73;;;1.27;;
6475;SDS011;3271;51.910;5.840;2023-07-20T13:10:52;1.38;;;1.20;;
6475;SDS011;3271;51.910;5.840;2023-07-20T13:13:18;1.60;;;1.50;;
6475;SDS011;3271;51.910;5.840;2023-07-20T13:15:44;1.60;;;1.50;;
6475;SDS011;3271;51.910;5.840;2023-07-20T13:18:11;1.48;;;1.35;;
6475;SDS011;3271;51.910;5.840;2023-07-20T13:20:37;2.20;;;2.00;;
6475;SDS011;3271;51.910;5.840;2023-07-20T13:23:03;1.75;;;1.48;;
6475;SDS011;3271;51.910;5.840;2023-07-20T13:25:29;2.33;;;1.80;;
6475;SDS011;3271;51.910;5.840;2023-07-20T13:27:55;1.75;;;1.60;;
6475;SDS011;3271;51.910;5.840;2023-07-20T13:30:21;1.65;;;1.40;;
6475;SDS011;3271;51.910;5.840;2023-07-20T13:32:48;2.80;;;1.73;;
6475;SDS011;3271;51.910;5.840;2023-07-20T13:35:14;1.75;;;1.60;;
6475;SDS011;3271;51.910;5.840;2023-07-20T13:37:40;1.48;;;1.38;;
6475;SDS011;3271;51.910;5.840;2023-07-20T13:40:07;1.52;;;1.42;;
6475;SDS011;3271;51.910;5.840;2023-07-20T13:42:38;1.50;;;1.20;;
6475;SDS011;3271;51.910;5.840;2023-07-20T13:45:05;1.75;;;1.65;;
6475;SDS011;3271;51.910;5.840;2023-07-20T13:47:31;1.85;;;1.75;;
6475;SDS011;3271;51.910;5.840;2023-07-20T13:49:57;1.80;;;1.40;;
6475;SDS011;3271;51.910;5.840;2023-07-20T13:52:23;1.20;;;1.10;;
6475;SDS011;3271;51.910;5.840;2023-07-20T13:54:49;1.63;;;1.33;;
6475;SDS011;3271;51.910;5.840;2023-07-20T13:57:15;1.40;;;1.30;;
6475;SDS011;3271;51.910;5.840;2023-07-20T13:59:41;1.10;;;1.10;;
6475;SDS011;3271;51.910;5.840;2023-07-20T14:02:07;1.45;;;1.33;;
6475;SDS011;3271;51.910;5.840;2023-07-20T14:04:34;1.35;;;1.25;;
6475;SDS011;3271;51.910;5.840;2023-07-20T14:07:00;1.35;;;1.20;;
6475;SDS011;3271;51.910;5.840;2023-07-20T14:09:26;2.15;;;1.38;;
6475;SDS011;3271;51.910;5.840;2023-07-20T14:11:52;1.73;;;1.63;;
6475;SDS011;3271;51.910;5.840;2023-07-20T14:14:18;1.70;;;1.60;;
6475;SDS011;3271;51.910;5.840;2023-07-20T14:16:44;1.65;;;1.45;;
6475;SDS011;3271;51.910;5.840;2023-07-20T14:19:10;2.00;;;1.63;;
6475;SDS011;3271;51.910;5.840;2023-07-20T14:21:36;3.20;;;1.25;;
6475;SDS011;3271;51.910;5.840;2023-07-20T14:24:02;1.30;;;1.20;;
6475;SDS011;3271;51.910;5.840;2023-07-20T14:26:28;1.77;;;1.40;;
6475;SDS011;3271;51.910;5.840;2023-07-20T14:28:54;1.63;;;1.43;;
6475;SDS011;3271;51.910;5.840;2023-07-20T14:31:20;1.67;;;1.45;;
6475;SDS011;3271;51.910;5.840;2023-07-20T14:33:46;2.03;;;1.30;;
6475;SDS011;3271;51.910;5.840;2023-07-20T14:36:12;1.35;;;1.25;;
6475;SDS011;3271;51.910;5.840;2023-07-20T14:38:37;3.55;;;1.30;;
6475;SDS011;3271;51.910;5.840;2023-07-20T14:41:05;1.55;;;1.20;;
6475;SDS011;3271;51.910;5.840;2023-07-20T14:43:31;1.50;;;1.30;;
6475;SDS011;3271;51.910;5.840;2023-07-20T14:45:57;1.35;;;1.25;;
6475;SDS011;3271;51.910;5.840;2023-07-20T14:48:23;1.50;;;1.40;;
6475;SDS011;3271;51.910;5.840;2023-07-20T14:50:49;1.58;;;1.45;;
6475;SDS011;3271;51.910;5.840;2023-07-20T14:53:15;1.38;;;1.27;;
6475;SDS011;3271;51.910;5.840;2023-07-20T14:55:41;1.30;;;1.20;;
6475;SDS011;3271;51.910;5.840;2023-07-20T14:58:07;2.03;;;1.08;;
6475;SDS011;3271;51.910;5.840;2023-07-20T15:00:34;3.20;;;1.35;;
6475;SDS011;3271;51.910;5.840;2023-07-20T15:03:00;0.98;;;0.98;;
6475;SDS011;3271;51.910;5.840;2023-07-20T15:05:26;2.15;;;1.30;;
6475;SDS011;3271;51.910;5.840;2023-07-20T15:07:53;1.20;;;1.10;;
6475;SDS011;3271;51.910;5.840;2023-07-20T15:10:19;2.78;;;1.20;;
6475;SDS011;3271;51.910;5.840;2023-07-20T15:12:45;1.10;;;1.00;;
6475;SDS011;3271;51.910;5.840;2023-07-20T15:15:12;1.25;;;1.13;;
6475;SDS011;3271;51.910;5.840;2023-07-20T15:17:39;1.65;;;1.10;;
6475;SDS011;3271;51.910;5.840;2023-07-20T15:20:05;1.67;;;1.20;;
6475;SDS011;3271;51.910;5.840;2023-07-20T15:22:32;1.67;;;1.05;;